Pratica Di Mare, Italy

12:45 PM CEST on October 01, 2016 (GMT +0200)
Via di Ponente | | Change Station
Active Advisory: >>

Elev 9 ft 41.63 °N, 12.47 °E | Updated 3 minutes ago

Clear
Clear
74.7 °F
Feels Like 77 °F
N
3.1
Wind Variable Wind from South
Gusts 8.1 mph

Today
High -- | Low -- °F
--% Chance of Precip.
Yesterday
High -- | Low -- °F
Precip. -- in
Pressure 30.06 in
Visibility -9999.0 miles
Clouds
Heat Index 77 °F
Dew Point 64 °F
Humidity 68%
Rainfall 0.00 in
Snow Depth Not available.
7:07 AM 6:51 PM
New Moon, 0% visible
METAR LIRA 011020Z 19007KT 150V240 CAVOK 24/12 Q1018
Pressure 30.06 in
Visibility -9999.0 miles
Clouds
Heat Index 77 °F
Dew Point 64 °F
Humidity 68%
Rainfall 0.00 in
Snow Depth Not available.
7:07 AM 6:51 PM
New Moon, 0% visible
METAR LIRA 011020Z 19007KT 150V240 CAVOK 24/12 Q1018

10-Day Weather Forecast

×

Almanac

Astronomy

Oct. 01, 2016 Rise Set
Actual Time
Civil Twilight
Nautical Twilight
Astronomical Twilight
Moon
Length of Visible Light
Length of Day
Tomorrow will be .
, % of the Moon is Illuminated

Today's Extremes

Country Highs Country Lows

Community

WunderPhotos

Upload Photos

1,942,908 photos uploaded!

WunderBlog® & News

Nearby

Air Quality

  Air Quality AQ Index Pollutant
Not available.

Snow Depth

Station Depth Elevation

Earthquake Activity

City Distance Mag. Time & Date
Minimum magnitude displayed is 2.5.

Coastal Water Temperatures

Place Temperature

Stations

Nearby Weather Stations

Station Location Temp. Windchill Dew Point Humidity Wind Precip. Elev Updated Type